Time;durP1;ratioP1;P1;durP2;ratioP2;P2;SDS_P1;SDS_P2;PMS_P1;PMS_P2;Temp;Humidity;BMP_temperature;BMP_pressure;BME280_temperature;BME280_humidity;BME280_pressure;Samples;Min_cycle;Max_cycle;Signal;HPM_P1;HPM_P2
2023/03/13 00:01:55;;;;;;;;;5.00;3.00;;;;;4.74;68.69;97963.50;4884604;28;102017;-70
2023/03/13 00:04:22;;;;;;;;;5.00;4.00;;;;;4.75;69.25;97970.53;4882618;28;104601;-69
2023/03/13 00:06:49;;;;;;;;;7.00;6.75;;;;;4.75;69.21;97970.53;4877999;28;101941;-70
2023/03/13 00:09:16;;;;;;;;;5.00;5.00;;;;;4.77;69.30;97968.53;4881006;28;102144;-69
2023/03/13 00:11:45;;;;;;;;;6.50;5.50;;;;;4.79;69.77;97961.13;4885144;28;102060;-69
2023/03/13 00:14:12;;;;;;;;;5.00;5.00;;;;;4.82;69.90;97956.25;4879703;28;103956;-68
2023/03/13 00:16:39;;;;;;;;;6.25;5.25;;;;;4.84;69.83;97964.09;4882371;28;102475;-69
2023/03/13 00:19:07;;;;;;;;;6.25;6.25;;;;;4.86;69.91;97967.47;4879431;28;102494;-69
2023/03/13 00:21:36;;;;;;;;;6.25;6.25;;;;;4.89;69.69;97967.91;4874847;28;102142;-69
2023/03/13 00:24:04;;;;;;;;;5.00;5.00;;;;;4.92;70.33;97974.75;4873303;28;104120;-69
2023/03/13 00:26:31;;;;;;;;;5.00;3.50;;;;;4.95;70.20;97971.72;4875147;28;102353;-68
2023/03/13 00:28:58;;;;;;;;;5.75;5.75;;;;;4.94;70.53;97964.69;4881596;28;102878;-70
2023/03/13 00:31:28;;;;;;;;;6.75;4.50;;;;;4.93;70.60;97955.00;4880965;28;102422;-70
2023/03/13 00:34:01;;;;;;;;;6.75;6.00;;;;;4.97;70.39;97948.25;4886918;28;109222;-68
2023/03/13 00:36:31;;;;;;;;;7.00;5.50;;;;;4.93;71.89;97949.63;4880331;28;102486;-69
2023/03/13 00:38:59;;;;;;;;;4.25;4.00;;;;;4.89;70.89;97930.41;4885287;28;102230;-69
2023/03/13 00:41:28;;;;;;;;;4.25;3.25;;;;;4.99;71.07;97942.72;4888156;28;102109;-68
2023/03/13 00:43:57;;;;;;;;;2.00;2.00;;;;;5.02;71.25;97939.66;4914081;28;108690;-68
2023/03/13 00:46:26;;;;;;;;;5.00;3.50;;;;;5.00;71.52;97937.16;4892880;28;102552;-69
2023/03/13 00:48:53;;;;;;;;;3.00;3.00;;;;;5.03;71.63;97925.28;4883020;28;102087;-69
2023/03/13 00:51:25;;;;;;;;;3.00;3.00;;;;;5.05;71.48;97915.19;4891127;28;102486;-70
2023/03/13 00:53:54;;;;;;;;;1.50;1.00;;;;;5.05;71.83;97910.66;4873995;28;109257;-70
2023/03/13 00:56:22;;;;;;;;;3.00;3.00;;;;;5.06;72.11;97915.00;4887401;28;102226;-69
2023/03/13 00:58:49;;;;;;;;;4.50;3.00;;;;;5.06;72.08;97923.03;4884045;28;102286;-69
2023/03/13 01:01:24;;;;;;;;;6.00;4.25;;;;;5.08;72.54;97923.72;4886831;28;105152;-70
2023/03/13 01:04:00;;;;;;;;;4.25;4.25;;;;;5.07;72.53;97919.38;4870704;28;110620;-70
2023/03/13 01:06:29;;;;;;;;;3.50;3.00;;;;;5.06;72.70;97915.00;4886399;28;102273;-70
2023/03/13 01:09:06;;;;;;;;;4.25;3.75;;;;;5.08;72.88;97914.84;4881700;28;102956;-71
2023/03/13 01:11:54;;;;;;;;;4.75;4.75;;;;;5.08;73.40;97901.44;4888828;28;102217;-70
2023/03/13 01:14:36;;;;;;;;;4.00;3.00;;;;;5.07;73.11;97910.50;4878428;28;109106;-70
2023/03/13 01:17:33;;;;;;;;;3.00;3.00;;;;;5.07;73.56;97905.97;4873345;28;101987;-69
2023/03/13 01:20:22;;;;;;;;;4.00;3.75;;;;;5.09;73.72;97909.28;4875030;28;102041;-70
2023/03/13 01:23:05;;;;;;;;;3.00;3.00;;;;;5.06;73.91;97906.97;4877840;28;102546;-70
2023/03/13 01:25:35;;;;;;;;;2.50;2.25;;;;;5.13;74.38;97921.31;4881793;28;103995;-69
2023/03/13 01:28:03;;;;;;;;;3.00;3.00;;;;;5.14;74.15;97911.41;4877097;28;102710;-70
2023/03/13 01:30:31;;;;;;;;;3.25;3.25;;;;;5.16;74.10;97920.09;4885214;28;102375;-70
2023/03/13 01:32:57;;;;;;;;;3.75;2.25;;;;;5.13;74.35;97910.59;4881769;28;101980;-70
2023/03/13 01:35:24;;;;;;;;;6.50;5.00;;;;;5.18;74.70;97923.44;4878547;28;104048;-69
2023/03/13 01:37:52;;;;;;;;;3.50;3.00;;;;;5.19;74.72;97930.44;4882543;28;102001;-69
2023/03/13 01:40:19;;;;;;;;;4.50;4.00;;;;;5.18;75.07;97929.59;4876675;28;101990;-70
2023/03/13 01:43:16;;;;;;;;;2.00;2.00;;;;;5.20;75.20;97932.13;4877696;28;102477;-70
2023/03/13 01:46:17;;;;;;;;;4.25;3.00;;;;;5.23;75.32;97934.41;4875558;28;108947;-69
2023/03/13 01:48:59;;;;;;;;;4.00;4.00;;;;;5.24;75.56;97938.78;4879008;28;102947;-69
2023/03/13 01:51:34;;;;;;;;;6.50;6.50;;;;;5.25;75.80;97933.25;4884751;28;102613;-69
2023/03/13 01:54:01;;;;;;;;;6.25;6.25;;;;;5.26;75.40;97939.44;4874297;28;102405;-69
2023/03/13 01:56:39;;;;;;;;;5.50;3.75;;;;;5.26;75.95;97937.59;4895319;28;104289;-70
2023/03/13 01:59:09;;;;;;;;;6.25;5.00;;;;;5.26;76.10;97936.75;4883569;28;102342;-70
2023/03/13 02:01:37;;;;;;;;;3.25;3.00;;;;;5.28;75.94;97932.03;4877898;28;102405;-69
2023/03/13 02:04:05;;;;;;;;;2.75;2.00;;;;;5.29;76.24;97931.84;4883732;28;102180;-68
2023/03/13 02:06:38;;;;;;;;;3.50;3.50;;;;;5.29;76.34;97931.03;4870835;28;104029;-68
2023/03/13 02:09:13;;;;;;;;;5.75;3.00;;;;;5.31;76.69;97931.69;4881017;28;102186;-69
2023/03/13 02:12:08;;;;;;;;;4.25;3.00;;;;;5.32;76.21;97925.28;4884610;28;102071;-69
2023/03/13 02:14:56;;;;;;;;;2.00;2.00;;;;;5.34;77.10;97937.50;4884966;28;103021;-69
2023/03/13 02:17:43;;;;;;;;;3.00;3.00;;;;;5.33;77.21;97943.88;4883108;28;109718;-69
2023/03/13 02:20:29;;;;;;;;;4.75;4.50;;;;;5.32;77.43;97946.72;4880802;28;102289;-69
2023/03/13 02:23:34;;;;;;;;;3.25;3.00;;;;;5.34;77.65;97950.06;4885888;28;102719;-70
2023/03/13 02:26:09;;;;;;;;;2.25;2.25;;;;;5.36;78.19;97953.38;4889137;28;102174;-69
2023/03/13 02:28:38;;;;;;;;;3.25;3.25;;;;;5.36;78.11;97951.53;4886020;28;103284;-70
2023/03/13 02:31:05;;;;;;;;;2.25;2.25;;;;;5.38;77.79;97949.50;4885720;28;102011;-71
2023/03/13 02:33:41;;;;;;;;;2.25;2.25;;;;;5.38;78.25;97952.19;4885317;28;102035;-71
2023/03/13 02:36:08;;;;;;;;;4.00;3.50;;;;;5.38;78.53;97968.28;4886867;28;102650;-70
2023/03/13 02:38:44;;;;;;;;;4.50;3.50;;;;;5.40;78.59;97965.41;4880899;28;104085;-70
2023/03/13 02:41:12;;;;;;;;;6.00;5.25;;;;;5.39;78.81;97972.63;4881952;28;102302;-70
2023/03/13 02:43:39;;;;;;;;;1.00;1.00;;;;;5.41;78.45;97959.03;4886703;28;102309;-70
2023/03/13 02:46:13;;;;;;;;;3.50;3.00;;;;;5.45;78.66;97967.56;4884943;28;105561;-70
2023/03/13 02:48:43;;;;;;;;;4.25;3.00;;;;;5.43;78.85;97958.84;4883246;28;104041;-70
2023/03/13 02:51:35;;;;;;;;;3.00;2.00;;;;;5.45;79.27;97968.34;4874838;28;103435;-70
2023/03/13 02:54:08;;;;;;;;;2.00;2.00;;;;;5.45;79.01;97973.72;4879677;28;101980;-70
2023/03/13 02:56:39;;;;;;;;;3.00;3.00;;;;;5.47;79.25;97976.22;4886046;28;101979;-69
2023/03/13 02:59:06;;;;;;;;;3.00;3.00;;;;;5.47;79.63;97976.22;4877382;28;104078;-70
2023/03/13 03:01:33;;;;;;;;;3.00;2.00;;;;;5.48;79.29;97973.38;4880820;28;102238;-70
2023/03/13 03:04:00;;;;;;;;;3.00;2.00;;;;;5.50;79.65;97967.81;4883494;28;102832;-70
2023/03/13 03:06:28;;;;;;;;;2.00;1.75;;;;;5.50;79.38;97965.13;4885163;28;102619;-70
2023/03/13 03:08:55;;;;;;;;;3.00;3.00;;;;;5.50;79.37;97971.31;4883036;28;104005;-69
2023/03/13 03:11:22;;;;;;;;;3.00;2.00;;;;;5.53;79.15;97973.66;4890390;28;102438;-69
2023/03/13 03:13:49;;;;;;;;;1.00;1.00;;;;;5.50;79.64;97979.38;4880814;28;101959;-69
2023/03/13 03:16:19;;;;;;;;;2.50;2.50;;;;;5.50;79.91;97970.47;4888990;28;102472;-70
2023/03/13 03:18:47;;;;;;;;;1.75;1.75;;;;;5.51;80.06;97966.78;4887286;28;104178;-70
2023/03/13 03:21:14;;;;;;;;;1.50;1.50;;;;;5.51;79.98;97972.16;4885838;28;102103;-70
2023/03/13 03:23:41;;;;;;;;;3.75;3.00;;;;;5.51;80.36;97972.16;4879917;28;103093;-69
2023/03/13 03:26:08;;;;;;;;;4.25;1.00;;;;;5.51;80.58;97974.84;4881920;28;103165;-70
2023/03/13 03:28:35;;;;;;;;;2.50;1.50;;;;;5.53;80.39;97980.88;4892319;28;103983;-69
2023/03/13 03:31:07;;;;;;;;;1.00;1.00;;;;;5.53;80.38;97981.69;4888981;28;102318;-69
2023/03/13 03:33:34;;;;;;;;;2.50;2.50;;;;;5.50;80.97;97978.53;4888560;28;102254;-70
2023/03/13 03:36:06;;;;;;;;;2.00;2.00;;;;;5.51;80.94;97978.34;4881947;28;102440;-70
2023/03/13 03:38:33;;;;;;;;;3.50;3.00;;;;;5.49;81.50;97968.84;4888163;28;104020;-70
2023/03/13 03:41:01;;;;;;;;;1.00;1.00;;;;;5.50;81.24;97968.63;4872972;28;102291;-69
2023/03/13 03:43:27;;;;;;;;;1.00;1.00;;;;;5.51;81.31;97974.84;4885745;28;102405;-70
2023/03/13 03:45:54;;;;;;;;;2.25;2.00;;;;;5.52;81.75;97979.19;4889473;28;102050;-70
2023/03/13 03:48:22;;;;;;;;;7.00;3.00;;;;;5.51;81.84;97973.00;4881339;28;109052;-70
2023/03/13 03:50:49;;;;;;;;;3.00;1.50;;;;;5.49;81.89;97974.22;4883953;28;102245;-70
2023/03/13 03:53:16;;;;;;;;;3.00;2.00;;;;;5.50;82.05;97975.84;4873842;28;102019;-70
2023/03/13 03:55:43;;;;;;;;;5.25;1.25;;;;;5.50;81.79;97975.84;4890764;28;102193;-70
2023/03/13 03:58:13;;;;;;;;;2.25;1.75;;;;;5.48;82.25;97970.69;4888480;28;103997;-70
2023/03/13 04:00:44;;;;;;;;;1.00;0.25;;;;;5.50;82.35;97976.69;4884773;28;102123;-70
2023/03/13 04:03:12;;;;;;;;;2.25;2.25;;;;;5.50;82.39;97970.47;4885804;28;102427;-70
2023/03/13 04:05:40;;;;;;;;;4.00;3.25;;;;;5.37;82.51;97953.19;4873064;28;102057;-70
2023/03/13 04:08:07;;;;;;;;;4.00;3.00;;;;;5.38;82.76;97952.19;4882096;28;104340;-70
2023/03/13 04:10:34;;;;;;;;;6.00;4.75;;;;;5.45;82.69;97962.19;4872890;28;102226;-71
2023/03/13 04:13:01;;;;;;;;;3.50;3.50;;;;;5.52;82.81;97965.78;4878833;28;102409;-70
2023/03/13 04:15:28;;;;;;;;;4.50;4.00;;;;;5.52;83.07;97969.31;4885408;28;103945;-70
2023/03/13 04:17:55;;;;;;;;;6.00;4.00;;;;;5.53;83.13;97981.69;4880268;28;104022;-69
2023/03/13 04:20:22;;;;;;;;;7.25;7.00;;;;;5.56;82.75;97981.31;4891740;28;102090;-69
2023/03/13 04:22:49;;;;;;;;;4.25;4.00;;;;;5.57;83.15;97974.94;4879091;28;102154;-70
2023/03/13 04:25:16;;;;;;;;;2.75;2.00;;;;;5.60;82.71;97971.06;4891791;28;102198;-70
2023/03/13 04:27:43;;;;;;;;;1.50;1.50;;;;;5.61;82.67;97962.00;4889288;28;103961;-70
2023/03/13 04:30:11;;;;;;;;;2.75;2.00;;;;;5.61;83.21;97967.34;4900675;28;102314;-71
2023/03/13 04:32:38;;;;;;;;;5.00;2.25;;;;;5.62;83.23;97969.03;4880671;28;102378;-72
2023/03/13 04:35:06;;;;;;;;;1.00;1.00;;;;;5.57;83.37;97947.28;4890339;28;102549;-71
2023/03/13 04:37:33;;;;;;;;;2.00;2.00;;;;;5.64;83.40;97954.41;4883402;28;103968;-72
2023/03/13 04:40:01;;;;;;;;;5.00;3.00;;;;;5.65;83.42;97958.75;4882423;28;101979;-70
2023/03/13 04:42:28;;;;;;;;;2.00;2.00;;;;;5.67;83.68;97958.59;4887225;28;102417;-71
2023/03/13 04:44:55;;;;;;;;;1.50;1.25;;;;;5.68;83.29;97949.50;4880756;28;102033;-74
2023/03/13 04:47:22;;;;;;;;;2.75;2.00;;;;;5.68;83.64;97947.66;4879502;28;104304;-71
2023/03/13 04:49:49;;;;;;;;;2.75;2.50;;;;;5.68;83.85;97947.66;4888202;28;102291;-70
2023/03/13 04:52:16;;;;;;;;;6.00;3.00;;;;;5.69;83.72;97945.81;4885836;28;102372;-70
2023/03/13 04:54:43;;;;;;;;;4.75;4.25;;;;;5.67;83.84;97950.53;4889790;28;102035;-71
2023/03/13 04:57:10;;;;;;;;;4.50;3.25;;;;;5.69;84.02;97948.47;4881864;28;104011;-72
2023/03/13 04:59:37;;;;;;;;;4.00;3.50;;;;;5.70;83.86;97955.53;4893014;28;103138;-71
2023/03/13 05:02:04;;;;;;;;;7.25;6.00;;;;;5.70;83.67;97950.16;4865297;28;102808;-72
2023/03/13 05:04:31;;;;;;;;;5.00;4.25;;;;;5.72;83.72;97950.78;4897199;28;102170;-70
2023/03/13 05:06:58;;;;;;;;;1.75;1.00;;;;;5.71;84.00;97941.09;4883081;28;103198;-70
2023/03/13 05:09:25;;;;;;;;;3.75;3.75;;;;;5.71;83.95;97951.81;4874979;28;102240;-69
2023/03/13 05:11:52;;;;;;;;;3.75;2.75;;;;;5.70;84.02;97948.31;4886281;28;101831;-71
2023/03/13 05:14:25;;;;;;;;;2.00;2.00;;;;;5.73;84.02;97949.78;4880784;28;102331;-71
2023/03/13 05:16:52;;;;;;;;;3.00;2.00;;;;;5.69;83.87;97943.13;4877379;28;104080;-70
2023/03/13 05:19:18;;;;;;;;;2.00;2.00;;;;;5.71;83.97;97944.63;4886557;28;102494;-71
2023/03/13 05:21:47;;;;;;;;;2.75;2.75;;;;;5.72;84.12;97940.06;4875936;28;102246;-69
2023/03/13 05:24:13;;;;;;;;;7.50;4.50;;;;;5.70;84.25;97948.31;4876742;28;102816;-71
2023/03/13 05:26:40;;;;;;;;;5.00;4.25;;;;;5.69;83.96;97938.59;4884332;28;103968;-69
2023/03/13 05:29:07;;;;;;;;;3.75;3.00;;;;;5.73;84.22;97939.03;4870779;28;102254;-70
2023/03/13 05:31:34;;;;;;;;;3.25;2.00;;;;;5.76;83.58;97941.38;4870664;28;102452;-69
2023/03/13 05:34:01;;;;;;;;;4.75;3.00;;;;;5.76;83.89;97938.69;4884725;28;102172;-70
2023/03/13 05:36:28;;;;;;;;;3.00;3.00;;;;;5.78;83.33;97936.63;4890379;28;103993;-70
2023/03/13 05:38:55;;;;;;;;;3.00;3.00;;;;;5.78;83.68;97931.28;4888921;28;102610;-70
2023/03/13 05:41:22;;;;;;;;;6.75;4.00;;;;;5.61;83.47;97913.72;4886505;28;102117;-71
2023/03/13 05:43:49;;;;;;;;;4.00;4.00;;;;;5.83;82.91;97943.09;4886742;28;102311;-71
2023/03/13 05:46:16;;;;;;;;;10.50;8.00;;;;;5.72;83.24;97926.66;4885954;28;104040;-71
2023/03/13 05:48:44;;;;;;;;;4.75;2.75;;;;;5.81;83.33;97941.63;4880305;28;102310;-70
2023/03/13 05:51:11;;;;;;;;;4.50;4.00;;;;;5.84;83.06;97942.09;4889066;28;102119;-71
2023/03/13 05:53:38;;;;;;;;;3.75;3.00;;;;;5.88;82.91;97939.06;4885122;28;104319;-71
2023/03/13 05:56:06;;;;;;;;;3.75;3.25;;;;;5.90;82.62;97935.16;4879075;28;104046;-71
2023/03/13 05:58:33;;;;;;;;;3.75;2.25;;;;;5.94;82.36;97933.78;4884856;28;102381;-71
2023/03/13 06:01:05;;;;;;;;;6.00;4.25;;;;;5.97;82.41;97928.03;4882398;28;103115;-69
2023/03/13 06:03:32;;;;;;;;;4.00;4.00;;;;;6.04;82.27;97931.63;4897470;28;102056;-69
2023/03/13 06:06:00;;;;;;;;;10.50;6.75;;;;;6.10;81.74;97924.66;4885729;28;104646;-69
2023/03/13 06:08:27;;;;;;;;;3.00;3.00;;;;;6.19;81.54;97919.00;4870837;28;101902;-70
2023/03/13 06:10:58;;;;;;;;;4.50;4.25;;;;;6.31;81.35;97911.25;4881505;28;102550;-70
2023/03/13 06:13:25;;;;;;;;;4.00;4.00;;;;;6.42;80.91;97920.69;4890268;28;102327;-70
2023/03/13 06:15:54;;;;;;;;;4.00;3.00;;;;;6.55;80.44;97910.06;4890893;28;104212;-71
2023/03/13 06:18:22;;;;;;;;;3.75;3.00;;;;;6.60;79.47;97918.38;4886297;28;102302;-69
2023/03/13 06:20:54;;;;;;;;;2.75;2.75;;;;;6.67;79.28;97916.56;4896046;28;102575;-70
2023/03/13 06:23:21;;;;;;;;;6.00;3.75;;;;;6.74;78.94;97917.47;4893693;28;102047;-70
2023/03/13 06:25:48;;;;;;;;;3.00;2.00;;;;;6.81;78.41;97917.50;4880905;28;104024;-70
2023/03/13 06:28:16;;;;;;;;;5.50;3.00;;;;;6.86;78.36;97905.16;4884876;28;102038;-70
2023/03/13 06:30:43;;;;;;;;;3.25;2.50;;;;;6.90;78.04;97909.13;4891783;28;102240;-69
2023/03/13 06:33:10;;;;;;;;;3.50;3.25;;;;;6.96;78.26;97910.22;4888447;28;102378;-69
2023/03/13 06:35:42;;;;;;;;;2.50;2.00;;;;;6.99;78.30;97902.56;4888240;28;103793;-70
2023/03/13 06:38:25;;;;;;;;;7.25;5.00;;;;;7.01;78.11;97911.28;4881539;28;102355;-69
2023/03/13 06:40:52;;;;;;;;;3.75;3.25;;;;;7.02;77.68;97914.81;4878016;28;102249;-69
2023/03/13 06:43:20;;;;;;;;;7.25;7.00;;;;;7.00;77.72;97906.94;4886428;28;102109;-70
2023/03/13 06:45:47;;;;;;;;;5.75;5.50;;;;;6.99;77.63;97909.81;4876876;28;104305;-69
2023/03/13 06:48:14;;;;;;;;;5.50;4.50;;;;;7.02;77.78;97904.91;4892332;28;102113;-69
2023/03/13 06:50:42;;;;;;;;;7.50;6.00;;;;;7.10;77.95;97914.66;4891254;28;102181;-69
2023/03/13 06:53:20;;;;;;;;;4.50;3.00;;;;;7.20;77.64;97911.63;4879955;28;102244;-69
2023/03/13 06:55:47;;;;;;;;;7.00;5.25;;;;;7.31;77.52;97903.00;4885872;28;104161;-69
2023/03/13 06:58:15;;;;;;;;;6.50;6.00;;;;;7.56;76.34;97905.00;4883598;28;102029;-70
2023/03/13 07:00:58;;;;;;;;;4.00;4.00;;;;;7.77;76.12;97906.78;4884831;28;101964;-70
2023/03/13 07:03:25;;;;;;;;;5.50;3.50;;;;;7.98;76.24;97909.34;4922744;28;102084;-70
2023/03/13 07:05:57;;;;;;;;;4.50;3.50;;;;;8.14;74.92;97900.09;4879166;28;104093;-70
2023/03/13 07:08:24;;;;;;;;;8.00;7.00;;;;;8.22;73.79;97881.03;4880010;28;102153;-69
2023/03/13 07:10:52;;;;;;;;;6.25;6.00;;;;;8.29;73.27;97892.69;4889894;28;102307;-70
2023/03/13 07:13:21;;;;;;;;;6.00;5.50;;;;;8.39;73.48;97897.69;4885893;28;102048;-70
2023/03/13 07:15:48;;;;;;;;;7.75;4.75;;;;;8.36;72.43;97892.72;4875789;28;104026;-70
2023/03/13 07:18:16;;;;;;;;;6.00;3.25;;;;;8.38;73.12;97893.31;4889133;28;101962;-70
2023/03/13 07:20:43;;;;;;;;;6.50;5.25;;;;;8.34;73.03;97890.22;4884958;28;102338;-69
2023/03/13 07:23:10;;;;;;;;;9.75;8.00;;;;;8.40;73.12;97889.41;4884826;28;102338;-70
2023/03/13 07:25:37;;;;;;;;;4.00;3.25;;;;;8.55;73.45;97886.53;4877657;28;104180;-69
2023/03/13 07:28:04;;;;;;;;;4.00;4.00;;;;;8.71;72.51;97880.72;4887757;28;101964;-70
2023/03/13 07:30:31;;;;;;;;;5.25;4.00;;;;;8.85;72.51;97882.38;4888088;28;102170;-70
2023/03/13 07:32:58;;;;;;;;;6.50;5.00;;;;;9.02;71.03;97873.88;4888735;28;102241;-70
2023/03/13 07:35:25;;;;;;;;;7.00;5.00;;;;;9.09;71.09;97872.00;4872301;28;108668;-70
2023/03/13 07:37:51;;;;;;;;;9.25;8.00;;;;;9.09;71.19;97877.41;4884992;28;102206;-70
2023/03/13 07:40:18;;;;;;;;;9.00;8.00;;;;;9.13;71.31;97873.25;4872508;28;102094;-70
2023/03/13 07:42:45;;;;;;;;;7.50;5.00;;;;;9.24;70.92;97865.34;4887510;28;102380;-70
2023/03/13 07:45:12;;;;;;;;;7.00;5.50;;;;;9.33;69.99;97868.63;4891754;28;103802;-70
2023/03/13 07:47:39;;;;;;;;;8.25;7.00;;;;;9.41;69.40;97865.72;4892834;28;102339;-70
2023/03/13 07:50:07;;;;;;;;;7.25;5.00;;;;;9.60;69.28;97870.22;4880984;28;102039;-70
2023/03/13 07:52:34;;;;;;;;;6.50;4.00;;;;;9.63;68.50;97853.63;4878707;28;102379;-70
2023/03/13 07:55:01;;;;;;;;;5.00;4.00;;;;;9.62;68.88;97857.34;4882674;28;104100;-71
2023/03/13 07:57:28;;;;;;;;;8.00;7.00;;;;;9.66;68.66;97865.84;4892005;28;102366;-71
2023/03/13 07:59:55;;;;;;;;;4.00;3.00;;;;;9.82;68.96;97868.06;4889452;28;102264;-71
2023/03/13 08:02:24;;;;;;;;;5.00;4.00;;;;;9.87;68.42;97849.34;4888172;28;102200;-70
2023/03/13 08:04:52;;;;;;;;;3.00;3.00;;;;;10.04;67.94;97844.28;4865466;28;103059;-70
2023/03/13 08:07:19;;;;;;;;;4.00;3.75;;;;;10.07;67.19;97860.06;4884382;28;104896;-70
2023/03/13 08:09:46;;;;;;;;;7.25;4.25;;;;;10.13;67.03;97848.41;4890265;28;102073;-70
2023/03/13 08:12:13;;;;;;;;;7.00;5.00;;;;;10.08;67.56;97846.34;4891951;28;102414;-71
2023/03/13 08:14:40;;;;;;;;;6.25;5.00;;;;;10.16;67.56;97848.00;4891648;28;104166;-71
2023/03/13 08:17:07;;;;;;;;;5.75;4.75;;;;;10.22;66.06;97860.63;4895375;28;102307;-70
2023/03/13 08:19:34;;;;;;;;;7.75;6.25;;;;;10.24;66.62;97864.75;4889631;28;104120;-70
2023/03/13 08:22:01;;;;;;;;;7.50;7.50;;;;;10.22;66.10;97857.94;4882511;28;102525;-69
2023/03/13 08:24:29;;;;;;;;;4.00;4.00;;;;;10.39;66.14;97860.94;4887287;28;104011;-70
2023/03/13 08:26:56;;;;;;;;;6.75;5.50;;;;;10.39;66.11;97842.03;4887298;28;101898;-69
2023/03/13 08:29:23;;;;;;;;;4.50;4.00;;;;;10.49;66.02;97853.19;4899919;28;102130;-70
2023/03/13 08:31:53;;;;;;;;;5.75;5.25;;;;;10.56;64.57;97849.38;4897014;28;101992;-71
2023/03/13 08:34:20;;;;;;;;;6.75;4.75;;;;;10.70;65.27;97840.13;4885351;28;104046;-70
2023/03/13 08:36:47;;;;;;;;;7.50;6.00;;;;;10.64;64.26;97830.19;4885378;28;101977;-70
2023/03/13 08:39:20;;;;;;;;;8.50;5.25;;;;;10.49;64.46;97826.16;4878417;28;101990;-70
2023/03/13 08:41:47;;;;;;;;;6.00;4.75;;;;;10.72;64.21;97832.59;4866806;28;102580;-71
2023/03/13 08:44:17;;;;;;;;;4.25;4.25;;;;;10.80;63.95;97838.81;4906452;28;104175;-71
2023/03/13 08:46:44;;;;;;;;;6.25;5.00;;;;;10.66;63.87;97833.50;4911400;28;102406;-69
2023/03/13 08:49:12;;;;;;;;;5.75;5.00;;;;;10.80;63.54;97826.13;4909376;28;101939;-69
2023/03/13 08:51:39;;;;;;;;;4.00;3.75;;;;;10.90;63.70;97826.41;4911696;28;102110;-69
2023/03/13 08:54:06;;;;;;;;;3.25;3.00;;;;;11.05;62.75;97821.50;4911136;28;103955;-71
2023/03/13 08:56:33;;;;;;;;;3.25;3.25;;;;;11.20;63.96;97831.97;4906804;28;101933;-71
2023/03/13 08:59:03;;;;;;;;;6.50;6.00;;;;;11.16;62.37;97822.66;4907110;28;101998;-71
2023/03/13 09:01:32;;;;;;;;;8.00;5.75;;;;;11.17;62.77;97824.28;4913732;28;102031;-71
2023/03/13 09:04:00;;;;;;;;;4.75;4.75;;;;;11.24;62.78;97825.06;4902513;28;103993;-73
2023/03/13 09:06:34;;;;;;;;;5.25;4.50;;;;;11.26;60.87;97805.91;4911035;28;102181;-74
2023/03/13 09:09:03;;;;;;;;;5.75;4.50;;;;;11.39;61.53;97806.56;4913281;28;102273;-72
2023/03/13 09:11:30;;;;;;;;;6.00;5.25;;;;;11.43;60.84;97812.38;4909973;28;101954;-72
2023/03/13 09:13:58;;;;;;;;;4.75;4.50;;;;;11.56;61.86;97812.22;4910330;28;103925;-69
2023/03/13 09:16:28;;;;;;;;;4.25;3.00;;;;;11.74;62.83;97820.34;4911056;28;102321;-70
2023/03/13 09:18:56;;;;;;;;;4.25;4.00;;;;;11.78;61.31;97807.19;4908377;28;102198;-70
2023/03/13 09:21:31;;;;;;;;;4.75;4.75;;;;;11.71;60.27;97819.97;4915699;28;102278;-70
2023/03/13 09:23:59;;;;;;;;;9.75;5.25;;;;;11.75;60.79;97799.53;4899007;28;108690;-70
2023/03/13 09:26:26;;;;;;;;;4.75;4.00;;;;;11.87;60.27;97794.97;4909895;28;102165;-71
2023/03/13 09:28:55;;;;;;;;;7.75;6.75;;;;;11.96;60.84;97793.59;4910868;28;102647;-70
2023/03/13 09:31:25;;;;;;;;;4.00;3.50;;;;;12.11;60.33;97799.44;4910726;28;102395;-69
2023/03/13 09:33:52;;;;;;;;;3.25;2.75;;;;;12.21;59.87;97794.25;4904401;28;104156;-70
2023/03/13 09:36:21;;;;;;;;;7.50;6.75;;;;;12.18;59.86;97783.06;4901040;28;110016;-71
2023/03/13 09:38:53;;;;;;;;;6.75;5.25;;;;;12.15;59.92;97789.78;4904965;28;102523;-70
2023/03/13 09:41:33;;;;;;;;;6.25;5.50;;;;;12.22;59.70;97793.22;4906252;28;102605;-72
2023/03/13 09:44:09;;;;;;;;;5.00;4.50;;;;;12.29;59.21;97780.38;4921937;28;108790;-72
2023/03/13 09:46:42;;;;;;;;;5.75;5.75;;;;;12.31;57.87;97772.84;4906547;28;102349;-71
2023/03/13 09:49:15;;;;;;;;;5.75;5.50;;;;;12.33;58.34;97772.63;4882460;28;102362;-71
2023/03/13 09:51:49;;;;;;;;;7.00;6.25;;;;;12.26;58.17;97767.28;4917368;28;102592;-71
2023/03/13 09:54:21;;;;;;;;;5.50;4.00;;;;;12.26;60.09;97775.44;4911487;28;104015;-71
2023/03/13 09:56:59;;;;;;;;;5.00;5.00;;;;;12.21;58.03;97771.75;4904244;28;102340;-70
2023/03/13 09:59:45;;;;;;;;;5.50;5.00;;;;;12.33;59.12;97768.03;4901348;28;103674;-71
2023/03/13 10:02:33;;;;;;;;;5.00;4.75;;;;;12.45;58.77;97759.91;4909006;28;102356;-71
2023/03/13 10:05:28;;;;;;;;;6.00;4.50;;;;;12.69;59.23;97753.47;4896437;28;109143;-72
2023/03/13 10:08:24;;;;;;;;;4.25;3.75;;;;;12.80;57.67;97752.63;4909260;28;102312;-71
2023/03/13 10:11:18;;;;;;;;;5.50;4.50;;;;;12.83;56.54;97748.63;4892650;28;102175;-72
2023/03/13 10:13:53;;;;;;;;;5.00;4.00;;;;;12.83;56.77;97757.56;4902832;28;102282;-71
2023/03/13 10:16:32;;;;;;;;;4.00;3.75;;;;;12.91;56.88;97740.13;4911979;28;104010;-70
2023/03/13 10:19:11;;;;;;;;;3.25;3.25;;;;;12.94;56.85;97745.06;4908113;28;102195;-70
2023/03/13 10:21:40;;;;;;;;;5.50;3.50;;;;;13.01;57.27;97726.81;4893774;28;102004;-70
2023/03/13 10:24:19;;;;;;;;;2.00;1.75;;;;;13.04;55.55;97726.31;4909527;28;102043;-71
2023/03/13 10:26:46;;;;;;;;;2.75;2.50;;;;;12.94;56.31;97731.50;4907719;28;104070;-71
2023/03/13 10:29:28;;;;;;;;;3.00;3.00;;;;;12.84;55.98;97723.13;4907155;28;102696;-71
2023/03/13 10:32:00;;;;;;;;;3.75;3.75;;;;;12.91;56.34;97723.84;4909459;28;102529;-72
2023/03/13 10:34:57;;;;;;;;;3.25;3.00;;;;;12.97;56.31;97728.31;4910817;28;102199;-71
2023/03/13 10:37:29;;;;;;;;;4.25;4.00;;;;;13.07;55.57;97722.28;4900280;28;107633;-69
2023/03/13 10:40:29;;;;;;;;;3.25;3.00;;;;;13.17;55.20;97707.09;4898554;28;101969;-71
2023/03/13 10:43:02;;;;;;;;;2.75;1.00;;;;;13.12;55.24;97712.41;4856736;28;102245;-71
2023/03/13 10:45:35;;;;;;;;;2.75;2.00;;;;;13.18;55.15;97707.91;4909519;28;102039;-71
2023/03/13 10:48:14;;;;;;;;;2.00;1.75;;;;;13.25;55.75;97708.59;4900393;28;107189;-71
2023/03/13 10:50:47;;;;;;;;;4.00;2.00;;;;;13.16;55.00;97700.00;4887566;28;102138;-71
2023/03/13 10:53:30;;;;;;;;;5.00;3.75;;;;;13.00;55.67;97703.44;4909624;28;102282;-71
2023/03/13 10:56:23;;;;;;;;;4.25;2.50;;;;;13.10;55.32;97706.38;4911520;28;102046;-71
2023/03/13 10:58:53;;;;;;;;;3.00;3.00;;;;;13.24;54.78;97693.38;4900171;28;108674;-72
2023/03/13 11:01:40;;;;;;;;;4.75;3.00;;;;;13.26;54.85;97691.25;4912405;28;102431;-71
2023/03/13 11:04:30;;;;;;;;;4.00;4.00;;;;;13.44;54.67;97679.38;4906353;28;102050;-71
2023/03/13 11:07:02;;;;;;;;;3.00;3.00;;;;;13.39;53.93;97682.81;4904912;28;102328;-72
2023/03/13 11:09:31;;;;;;;;;3.50;3.00;;;;;13.43;54.76;97675.00;4923749;28;108694;-70
2023/03/13 11:12:06;;;;;;;;;3.50;2.75;;;;;13.40;53.94;97674.44;4905517;28;102256;-70
2023/03/13 11:14:34;;;;;;;;;3.75;3.00;;;;;13.39;54.63;97675.50;4898804;28;102078;-72
2023/03/13 11:17:27;;;;;;;;;2.75;2.50;;;;;13.40;54.61;97668.19;4899379;28;102387;-72
2023/03/13 11:20:29;;;;;;;;;3.00;3.00;;;;;13.43;54.44;97666.88;4906277;28;104004;-71
2023/03/13 11:23:14;;;;;;;;;3.75;3.00;;;;;13.40;53.45;97649.19;4905585;28;102218;-71
2023/03/13 11:26:00;;;;;;;;;4.00;2.50;;;;;13.48;54.08;97654.22;4903425;28;102124;-71
2023/03/13 11:28:54;;;;;;;;;3.50;2.00;;;;;13.57;52.15;97643.78;4909888;28;102888;-72
2023/03/13 11:31:41;;;;;;;;;2.00;1.75;;;;;13.71;53.23;97645.13;4905991;28;108062;-71
2023/03/13 11:34:27;;;;;;;;;3.00;2.50;;;;;13.62;52.49;97642.00;4896650;28;102242;-70
2023/03/13 11:37:13;;;;;;;;;2.00;2.00;;;;;13.44;52.15;97625.91;4907435;28;101993;-71
2023/03/13 11:40:14;;;;;;;;;2.00;2.00;;;;;13.29;52.19;97607.44;4890475;28;102262;-71
2023/03/13 11:43:01;;;;;;;;;1.00;1.00;;;;;13.36;52.09;97629.84;4902292;28;108952;-71
2023/03/13 11:45:55;;;;;;;;;3.00;3.00;;;;;13.26;51.59;97621.50;4891713;28;102285;-71
2023/03/13 11:48:25;;;;;;;;;3.00;2.00;;;;;13.17;51.83;97619.41;4896223;28;101869;-71
2023/03/13 11:51:16;;;;;;;;;2.00;1.00;;;;;13.08;52.18;97608.06;4900496;28;102401;-71
2023/03/13 11:54:17;;;;;;;;;3.00;2.00;;;;;12.97;52.33;97585.31;4905208;28;108543;-71